Terminal Aerodrome Forecast
Issued by NWS

Home | Current Version | Previous Version | Text Only | Print | Product List | Glossary On
Versions: 1 2 3 4 5 6 7 8 9 10 11 12 13 14 15 16 17 18
944
FTUS46 KSEW 302102 AAA
TAFCLM
TAF AMD
KCLM 302102Z 3021/3118 32012KT P6SM SCT040
     FM310800 00000KT 3SM BR SCT005
      TEMPO 3110/3112 1SM BR BKN005
     FM311600 21004KT P6SM SCT010 BKN200=

USA.gov is the U.S. government's official web portal to all federal, state and local government web resources and services.